Time;durP1;ratioP1;P1;durP2;ratioP2;P2;SDS_P1;SDS_P2;PMS_P1;PMS_P2;Temp;Humidity;BMP_temperature;BMP_pressure;BME280_temperature;BME280_humidity;BME280_pressure;Samples;Min_cycle;Max_cycle;Signal;HPM_P1;HPM_P2
2021/08/10 00:00:49;;;;;;;9.57;6.55;;;15.00;93.80;;;;;;5104479;28;20020;-79
2021/08/10 00:03:15;;;;;;;9.23;5.40;;;15.00;93.80;;;;;;5098694;28;20024;-80
2021/08/10 00:05:47;;;;;;;11.13;6.82;;;15.00;93.80;;;;;;5103442;28;20127;-79
2021/08/10 00:08:17;;;;;;;11.55;7.45;;;15.00;93.80;;;;;;5097286;28;20032;-80
2021/08/10 00:10:44;;;;;;;12.82;6.88;;;15.00;93.80;;;;;;5094942;28;20058;-79
2021/08/10 00:13:20;;;;;;;8.43;4.70;;;15.00;93.90;;;;;;5102234;28;20061;-79
2021/08/10 00:15:46;;;;;;;8.50;5.90;;;15.00;93.90;;;;;;5095442;28;20089;-78
2021/08/10 00:18:12;;;;;;;9.35;6.50;;;14.90;93.90;;;;;;5069082;28;20467;-80
2021/08/10 00:20:38;;;;;;;7.15;5.80;;;15.00;93.90;;;;;;5111491;28;20093;-80
2021/08/10 00:23:04;;;;;;;9.45;5.20;;;14.90;93.90;;;;;;5096349;28;20032;-78
2021/08/10 00:25:30;;;;;;;8.82;5.88;;;15.00;94.00;;;;;;5097703;28;20022;-79
2021/08/10 00:27:56;;;;;;;8.13;4.13;;;15.00;94.20;;;;;;5108524;28;20020;-79
2021/08/10 00:30:22;;;;;;;8.98;4.40;;;14.90;94.00;;;;;;5099229;28;20028;-79
2021/08/10 00:32:48;;;;;;;7.05;4.32;;;14.90;94.00;;;;;;5088687;28;20031;-79
2021/08/10 00:35:15;;;;;;;9.48;6.07;;;14.90;94.10;;;;;;5111459;28;20478;-79
2021/08/10 00:37:40;;;;;;;7.25;4.72;;;14.80;94.10;;;;;;5110380;28;20069;-81
2021/08/10 00:40:09;;;;;;;8.77;4.82;;;14.80;94.10;;;;;;5106388;28;20028;-79
2021/08/10 00:42:34;;;;;;;8.18;4.63;;;14.80;94.10;;;;;;5096143;28;20070;-79
2021/08/10 00:45:00;;;;;;;8.95;6.18;;;14.80;94.10;;;;;;5091553;28;20609;-78
2021/08/10 00:47:26;;;;;;;9.02;5.82;;;14.80;94.10;;;;;;5100418;28;20024;-79
2021/08/10 00:49:51;;;;;;;7.38;4.78;;;14.80;94.10;;;;;;5105664;28;20365;-79
2021/08/10 00:52:17;;;;;;;9.80;5.63;;;14.80;94.10;;;;;;5087261;28;20036;-79
2021/08/10 00:54:43;;;;;;;6.80;4.80;;;14.80;94.10;;;;;;5107691;28;20040;-80
2021/08/10 00:57:08;;;;;;;7.20;4.43;;;14.80;94.10;;;;;;5092693;28;20024;-79
2021/08/10 00:59:34;;;;;;;8.43;5.15;;;14.80;94.10;;;;;;5110109;28;20130;-78
2021/08/10 01:02:02;;;;;;;9.00;4.60;;;14.80;94.10;;;;;;5076720;28;20024;-79
2021/08/10 01:04:28;;;;;;;6.88;4.07;;;14.90;94.20;;;;;;5111328;28;20027;-79
2021/08/10 01:07:02;;;;;;;7.75;4.13;;;14.90;94.20;;;;;;5093489;28;20028;-79
2021/08/10 01:09:32;;;;;;;6.45;3.83;;;14.90;94.20;;;;;;5113145;28;20020;-79
2021/08/10 01:12:06;;;;;;;9.02;4.28;;;14.90;94.30;;;;;;5111872;28;20532;-79
2021/08/10 01:14:54;;;;;;;11.57;5.38;;;14.90;94.30;;;;;;5110742;28;20046;-79
2021/08/10 01:17:49;;;;;;;9.88;5.78;;;15.00;94.30;;;;;;5111506;28;20028;-80
2021/08/10 01:20:26;;;;;;;9.90;5.25;;;15.10;94.30;;;;;;5093059;28;20024;-79
2021/08/10 01:22:55;;;;;;;6.50;4.35;;;15.20;94.20;;;;;;5111541;28;20103;-80
2021/08/10 01:25:28;;;;;;;8.13;4.93;;;15.30;94.10;;;;;;5111279;28;20024;-79
2021/08/10 01:28:13;;;;;;;7.65;4.30;;;15.40;94.10;;;;;;5110164;28;20032;-80
2021/08/10 01:30:48;;;;;;;8.98;4.05;;;15.40;94.00;;;;;;5111191;28;20065;-79
2021/08/10 01:33:14;;;;;;;8.35;4.45;;;15.50;93.90;;;;;;5111207;28;20082;-79
2021/08/10 01:35:40;;;;;;;7.55;4.35;;;15.50;93.90;;;;;;5112374;28;20471;-79
2021/08/10 01:38:07;;;;;;;6.25;4.10;;;15.60;93.80;;;;;;5094184;28;20754;-79
2021/08/10 01:40:33;;;;;;;7.28;3.50;;;15.70;93.80;;;;;;5094090;28;20024;-79
2021/08/10 01:43:03;;;;;;;8.45;4.10;;;15.70;93.70;;;;;;5095029;28;20141;-79
2021/08/10 01:45:36;;;;;;;6.15;3.53;;;15.70;93.60;;;;;;5096121;28;20020;-79
2021/08/10 01:48:03;;;;;;;6.07;3.95;;;15.80;93.50;;;;;;5078437;28;20066;-79
2021/08/10 01:50:29;;;;;;;6.13;3.38;;;15.80;93.50;;;;;;5110530;28;20080;-79
2021/08/10 01:52:56;;;;;;;5.20;3.50;;;15.80;93.40;;;;;;5117161;28;20523;-79
2021/08/10 01:55:22;;;;;;;7.50;3.47;;;15.90;93.40;;;;;;5122302;28;20031;-79
2021/08/10 01:57:49;;;;;;;6.57;3.40;;;15.80;93.30;;;;;;5122611;28;20035;-78
2021/08/10 02:00:16;;;;;;;5.38;3.53;;;15.90;93.30;;;;;;5121603;28;20085;-78
2021/08/10 02:02:46;;;;;;;8.38;3.90;;;16.00;93.20;;;;;;5123698;28;20468;-79
2021/08/10 02:05:13;;;;;;;5.13;3.10;;;16.00;93.10;;;;;;5123401;28;20083;-79
2021/08/10 02:07:39;;;;;;;10.23;3.53;;;16.00;93.10;;;;;;5129718;28;20024;-80
2021/08/10 02:10:06;;;;;;;7.05;3.22;;;16.00;93.10;;;;;;5120226;28;20043;-81
2021/08/10 02:12:34;;;;;;;5.82;3.30;;;15.90;93.10;;;;;;5116022;28;20031;-80
2021/08/10 02:15:01;;;;;;;8.82;4.00;;;15.90;93.20;;;;;;5118018;28;20020;-81
2021/08/10 02:17:26;;;;;;;8.90;4.00;;;15.80;93.20;;;;;;5116124;28;20387;-81
2021/08/10 02:19:52;;;;;;;5.50;3.80;;;15.70;93.20;;;;;;5098105;28;20031;-80
2021/08/10 02:22:19;;;;;;;4.50;3.33;;;15.70;93.20;;;;;;5114822;28;20494;-80
2021/08/10 02:25:07;;;;;;;7.28;3.75;;;15.60;93.20;;;;;;5096837;28;20024;-80
2021/08/10 02:28:04;;;;;;;6.03;3.72;;;15.50;93.10;;;;;;5115568;28;20095;-81
2021/08/10 02:30:34;;;;;;;5.93;3.55;;;15.50;93.00;;;;;;5086604;28;20055;-81
2021/08/10 02:33:05;;;;;;;6.25;3.53;;;15.40;92.80;;;;;;5093345;28;20172;-80
2021/08/10 02:35:31;;;;;;;5.75;3.28;;;15.40;92.50;;;;;;5093990;28;20029;-82
2021/08/10 02:38:02;;;;;;;6.10;3.95;;;15.30;92.30;;;;;;5093734;28;20436;-83
2021/08/10 02:40:28;;;;;;;6.68;3.85;;;15.20;92.20;;;;;;5095483;28;20031;-83
2021/08/10 02:42:57;;;;;;;7.32;3.83;;;15.20;92.40;;;;;;5093953;28;20058;-82
2021/08/10 02:45:23;;;;;;;7.75;4.15;;;15.20;92.40;;;;;;5112237;28;20020;-83
2021/08/10 02:47:50;;;;;;;8.18;3.70;;;15.10;92.20;;;;;;5114606;28;20031;-82
2021/08/10 02:50:18;;;;;;;6.25;3.72;;;15.00;92.10;;;;;;5113142;28;20738;-82
2021/08/10 02:52:44;;;;;;;6.32;4.50;;;15.00;92.30;;;;;;5114083;28;20085;-82
2021/08/10 02:55:10;;;;;;;6.18;3.72;;;15.00;92.50;;;;;;5115032;27;20031;-81
2021/08/10 02:57:52;;;;;;;5.38;3.83;;;14.90;92.50;;;;;;5114277;28;20439;-82
2021/08/10 03:00:18;;;;;;;6.65;3.50;;;14.90;92.50;;;;;;5113738;28;20591;-82
2021/08/10 03:02:48;;;;;;;7.85;3.53;;;14.80;92.50;;;;;;5077854;28;20059;-82
2021/08/10 03:05:20;;;;;;;4.72;3.08;;;14.80;92.60;;;;;;5093382;28;20115;-81
2021/08/10 03:07:57;;;;;;;4.90;3.22;;;14.80;92.70;;;;;;5095499;28;20020;-82
2021/08/10 03:10:25;;;;;;;6.95;3.50;;;14.80;92.80;;;;;;5076722;28;20410;-82
2021/08/10 03:12:52;;;;;;;7.22;3.67;;;14.80;92.80;;;;;;5094295;28;20384;-82
2021/08/10 03:15:22;;;;;;;6.03;3.17;;;14.90;92.90;;;;;;5076970;28;20035;-82
2021/08/10 03:17:52;;;;;;;5.72;3.35;;;15.00;92.90;;;;;;5094212;28;20028;-82
2021/08/10 03:20:19;;;;;;;5.78;3.03;;;15.00;92.90;;;;;;5096167;28;20106;-82
2021/08/10 03:22:47;;;;;;;6.15;3.25;;;15.00;92.90;;;;;;5093464;28;20129;-82
2021/08/10 03:25:15;;;;;;;7.45;3.22;;;15.10;92.90;;;;;;5109358;28;20391;-82
2021/08/10 03:27:42;;;;;;;5.35;2.97;;;15.10;93.10;;;;;;5118014;28;20031;-82
2021/08/10 03:30:09;;;;;;;4.85;3.10;;;15.10;92.90;;;;;;5113345;28;20039;-83
2021/08/10 03:32:36;;;;;;;7.82;3.92;;;15.00;92.90;;;;;;5095701;28;20040;-84
2021/08/10 03:35:06;;;;;;;3.63;2.92;;;14.90;93.20;;;;;;5113635;28;20043;-84
2021/08/10 03:37:32;;;;;;;5.75;3.15;;;14.80;93.00;;;;;;5114752;27;20031;-85
2021/08/10 03:40:00;;;;;;;5.70;2.72;;;14.70;93.10;;;;;;5113528;28;20081;-84
2021/08/10 03:42:26;;;;;;;4.80;3.35;;;14.60;93.20;;;;;;5093139;28;20107;-83
2021/08/10 03:44:52;;;;;;;8.02;3.45;;;14.50;93.30;;;;;;5092930;28;20031;-83
2021/08/10 03:47:18;;;;;;;5.30;3.10;;;14.40;93.40;;;;;;5093386;28;20028;-82
2021/08/10 03:49:46;;;;;;;6.68;3.00;;;14.40;93.50;;;;;;5101595;28;20099;-81
2021/08/10 03:52:14;;;;;;;6.68;3.70;;;14.30;93.60;;;;;;5105297;28;20044;-81
2021/08/10 03:54:41;;;;;;;6.57;3.22;;;14.20;93.60;;;;;;5124746;28;20031;-81
2021/08/10 03:57:15;;;;;;;8.02;3.30;;;14.20;93.70;;;;;;5110258;28;20024;-82
2021/08/10 03:59:42;;;;;;;5.18;3.10;;;14.20;93.80;;;;;;5125302;28;20051;-81
2021/08/10 04:02:09;;;;;;;7.90;3.50;;;14.20;93.80;;;;;;5115742;28;20448;-81
2021/08/10 04:04:35;;;;;;;5.35;3.33;;;14.20;93.90;;;;;;5113864;28;20035;-80
2021/08/10 04:07:06;;;;;;;5.25;3.38;;;14.10;93.90;;;;;;5114349;28;20032;-81
2021/08/10 04:09:34;;;;;;;7.10;3.80;;;14.10;93.90;;;;;;5113027;28;20028;-81
2021/08/10 04:12:00;;;;;;;6.93;3.60;;;14.10;94.00;;;;;;5113879;28;20030;-81
2021/08/10 04:14:25;;;;;;;6.10;3.40;;;14.10;94.00;;;;;;5112134;28;20055;-81
2021/08/10 04:16:55;;;;;;;7.20;3.58;;;14.10;94.10;;;;;;5095475;28;20055;-81
2021/08/10 04:19:27;;;;;;;6.65;3.60;;;14.10;94.10;;;;;;5113022;28;20039;-81
2021/08/10 04:21:53;;;;;;;8.27;4.57;;;14.00;94.20;;;;;;5113258;28;20078;-80
2021/08/10 04:24:19;;;;;;;5.90;3.65;;;14.00;94.20;;;;;;5094614;28;20369;-81
2021/08/10 04:26:44;;;;;;;5.90;3.75;;;14.00;94.30;;;;;;5096318;28;20114;-81
2021/08/10 04:29:10;;;;;;;6.90;3.97;;;14.00;94.30;;;;;;5113634;27;20023;-82
2021/08/10 04:31:36;;;;;;;6.45;3.42;;;14.00;94.30;;;;;;5095170;28;20084;-82
2021/08/10 04:34:01;;;;;;;6.63;4.18;;;14.00;94.60;;;;;;5112959;28;20484;-81
2021/08/10 04:36:27;;;;;;;6.88;3.70;;;13.90;94.40;;;;;;5078170;28;20028;-82
2021/08/10 04:38:53;;;;;;;5.72;3.78;;;13.90;94.40;;;;;;5095570;28;20327;-81
2021/08/10 04:41:18;;;;;;;5.93;3.75;;;13.90;94.40;;;;;;5112548;28;20035;-82
2021/08/10 04:43:44;;;;;;;8.73;4.15;;;14.00;94.50;;;;;;5095483;28;20028;-81
2021/08/10 04:46:10;;;;;;;6.50;3.90;;;14.00;94.50;;;;;;5112058;28;20020;-82
2021/08/10 04:48:35;;;;;;;8.32;4.25;;;14.10;94.50;;;;;;5111332;28;20055;-83
2021/08/10 04:51:01;;;;;;;6.28;4.50;;;14.30;94.60;;;;;;5111740;28;20424;-81
2021/08/10 04:53:27;;;;;;;5.53;4.25;;;14.70;94.50;;;;;;5094400;28;20115;-83
2021/08/10 04:55:53;;;;;;;7.35;4.28;;;15.20;94.10;;;;;;5111927;28;20493;-83
2021/08/10 04:58:18;;;;;;;5.80;3.75;;;15.70;93.40;;;;;;5111272;28;20586;-84
2021/08/10 05:00:47;;;;;;;8.38;3.85;;;16.20;92.60;;;;;;5112142;28;20416;-82
2021/08/10 05:03:13;;;;;;;6.93;3.95;;;16.50;91.40;;;;;;5111888;28;20329;-82
2021/08/10 05:05:39;;;;;;;7.30;3.28;;;16.80;90.80;;;;;;5111179;28;20039;-82
2021/08/10 05:08:06;;;;;;;7.88;3.60;;;17.20;90.20;;;;;;5112631;28;20031;-82
2021/08/10 05:10:32;;;;;;;5.70;2.53;;;17.70;88.90;;;;;;5093648;28;20032;-82
2021/08/10 05:12:58;;;;;;;4.38;2.80;;;18.20;87.00;;;;;;5111839;28;20091;-83
2021/08/10 05:15:23;;;;;;;5.30;2.60;;;18.80;85.20;;;;;;5110987;28;20536;-82
2021/08/10 05:17:49;;;;;;;4.68;2.90;;;19.30;83.10;;;;;;5111396;28;20515;-83
2021/08/10 05:20:15;;;;;;;4.10;2.70;;;19.50;81.30;;;;;;5074490;28;20062;-81
2021/08/10 05:22:43;;;;;;;4.82;2.35;;;19.80;79.50;;;;;;5088955;28;20079;-82
2021/08/10 05:25:10;;;;;;;3.72;2.55;;;20.10;79.30;;;;;;5111134;28;20387;-81
2021/08/10 05:27:36;;;;;;;3.83;2.67;;;20.50;78.00;;;;;;5093822;28;20032;-80
2021/08/10 05:30:03;;;;;;;4.50;2.35;;;20.80;77.00;;;;;;5112266;28;20024;-81
2021/08/10 05:32:28;;;;;;;3.95;2.63;;;21.30;75.90;;;;;;5110734;28;20062;-82
2021/08/10 05:34:54;;;;;;;3.33;1.92;;;21.70;74.30;;;;;;5111264;28;20460;-81
2021/08/10 05:37:20;;;;;;;3.92;2.15;;;22.20;72.90;;;;;;5110581;28;20023;-81
2021/08/10 05:39:45;;;;;;;4.28;2.15;;;22.80;70.90;;;;;;5111680;28;20038;-82
2021/08/10 05:42:11;;;;;;;3.40;1.98;;;23.20;69.90;;;;;;5110566;28;20421;-80
2021/08/10 05:44:36;;;;;;;5.22;1.88;;;23.60;68.90;;;;;;5111512;28;20029;-81
2021/08/10 05:47:02;;;;;;;2.75;1.80;;;24.10;67.70;;;;;;5093974;28;20375;-82
2021/08/10 05:49:28;;;;;;;4.00;1.67;;;24.30;66.80;;;;;;5110834;28;20431;-81
2021/08/10 05:51:54;;;;;;;5.93;2.10;;;24.20;66.00;;;;;;5110602;28;20062;-82
2021/08/10 05:54:19;;;;;;;6.68;1.52;;;24.30;66.70;;;;;;5094505;28;20123;-82
2021/08/10 05:56:46;;;;;;;3.88;1.83;;;24.70;65.30;;;;;;5068580;28;20032;-83
2021/08/10 05:59:13;;;;;;;3.05;1.95;;;24.20;65.60;;;;;;5091624;28;20044;-82
2021/08/10 06:01:38;;;;;;;5.03;2.05;;;23.00;67.20;;;;;;5091808;28;20028;-81
2021/08/10 06:04:05;;;;;;;3.90;1.95;;;22.10;70.10;;;;;;5073700;28;20032;-82
2021/08/10 06:06:33;;;;;;;6.75;2.40;;;21.40;72.10;;;;;;5090428;28;20464;-82
2021/08/10 06:09:00;;;;;;;4.75;1.98;;;20.60;74.40;;;;;;5091022;28;20065;-82
2021/08/10 06:11:26;;;;;;;5.55;2.45;;;19.80;77.00;;;;;;5094741;28;20028;-84
2021/08/10 06:13:51;;;;;;;3.83;2.20;;;19.30;78.90;;;;;;5112318;28;20031;-82
2021/08/10 06:16:17;;;;;;;4.55;2.60;;;19.00;80.60;;;;;;5107619;28;20105;-81
2021/08/10 06:18:43;;;;;;;7.97;3.28;;;18.80;81.60;;;;;;5110801;28;20479;-83
2021/08/10 06:21:08;;;;;;;5.13;2.53;;;18.70;82.30;;;;;;5091958;28;20040;-82
2021/08/10 06:23:34;;;;;;;4.35;2.88;;;18.60;83.10;;;;;;5105922;28;20077;-83
2021/08/10 06:26:00;;;;;;;3.90;2.78;;;18.70;83.40;;;;;;5101015;28;20032;-83
2021/08/10 06:28:26;;;;;;;3.58;2.50;;;18.80;83.30;;;;;;5107914;28;20035;-82
2021/08/10 06:30:51;;;;;;;6.53;2.63;;;18.80;83.30;;;;;;5131492;27;20035;-82
2021/08/10 06:33:17;;;;;;;5.25;2.60;;;18.70;83.70;;;;;;5109715;28;20039;-81
2021/08/10 06:35:42;;;;;;;5.45;3.00;;;18.60;84.20;;;;;;5112528;28;20028;-81
2021/08/10 06:38:08;;;;;;;3.50;2.67;;;18.50;84.70;;;;;;5085593;28;20032;-82
2021/08/10 06:40:34;;;;;;;4.88;3.08;;;18.40;84.90;;;;;;5108530;28;20478;-82
2021/08/10 06:42:59;;;;;;;6.25;3.45;;;18.20;85.30;;;;;;5096699;28;20080;-82
2021/08/10 06:45:25;;;;;;;7.32;3.53;;;18.20;86.00;;;;;;5114205;28;20071;-82
2021/08/10 06:47:52;;;;;;;5.45;3.13;;;18.10;86.10;;;;;;5107393;28;20027;-83
2021/08/10 06:50:19;;;;;;;6.00;3.55;;;18.10;86.40;;;;;;5093106;27;20035;-84
2021/08/10 06:52:46;;;;;;;6.07;4.05;;;18.10;86.80;;;;;;5106390;28;20464;-84
2021/08/10 06:55:12;;;;;;;6.97;4.22;;;18.10;87.00;;;;;;5110394;28;20020;-83
2021/08/10 06:57:38;;;;;;;6.97;4.30;;;18.30;87.10;;;;;;5093863;28;20028;-84
2021/08/10 07:00:06;;;;;;;6.25;4.07;;;18.60;86.90;;;;;;5113876;27;20024;-82
2021/08/10 07:02:32;;;;;;;4.60;3.65;;;18.90;85.40;;;;;;5107891;28;20072;-84
2021/08/10 07:04:58;;;;;;;4.53;3.80;;;19.30;84.70;;;;;;5096885;28;20070;-83
2021/08/10 07:07:24;;;;;;;4.28;3.72;;;19.80;83.40;;;;;;5114134;28;20035;-82
2021/08/10 07:09:50;;;;;;;5.07;3.35;;;20.00;82.40;;;;;;5111685;28;20463;-84
2021/08/10 07:12:16;;;;;;;7.03;3.53;;;19.90;81.70;;;;;;5113589;28;20043;-83
2021/08/10 07:14:41;;;;;;;4.20;3.80;;;19.80;81.70;;;;;;5113090;28;20031;-84
2021/08/10 07:17:07;;;;;;;4.28;3.55;;;19.70;81.90;;;;;;5128270;27;20054;-83
2021/08/10 07:19:33;;;;;;;5.57;4.07;;;19.70;82.10;;;;;;5105191;28;20034;-83
2021/08/10 07:21:59;;;;;;;5.13;3.30;;;19.70;82.00;;;;;;5104138;28;20099;-83
2021/08/10 07:24:25;;;;;;;9.73;6.32;;;19.70;82.30;;;;;;5103411;28;20083;-81
2021/08/10 07:26:52;;;;;;;11.70;5.65;;;19.50;82.50;;;;;;5095649;28;20452;-81
2021/08/10 07:29:18;;;;;;;6.85;5.28;;;19.50;82.80;;;;;;5080046;28;20463;-82
2021/08/10 07:31:44;;;;;;;6.35;4.18;;;19.50;82.80;;;;;;5109114;28;20054;-82
2021/08/10 07:34:10;;;;;;;6.60;4.88;;;19.50;82.80;;;;;;5130915;27;20028;-83
2021/08/10 07:36:36;;;;;;;9.50;6.53;;;19.60;83.00;;;;;;5112144;28;20034;-82
2021/08/10 07:39:02;;;;;;;6.90;5.13;;;19.60;82.90;;;;;;5089885;28;20126;-82
2021/08/10 07:41:28;;;;;;;8.20;5.07;;;19.60;82.90;;;;;;5092767;28;20016;-81
2021/08/10 07:43:53;;;;;;;7.03;4.40;;;19.70;83.50;;;;;;5092323;28;20032;-83
2021/08/10 07:46:19;;;;;;;6.95;4.13;;;20.30;83.30;;;;;;5109063;28;20115;-83
2021/08/10 07:48:45;;;;;;;7.28;4.30;;;21.60;81.20;;;;;;5092596;28;20035;-84
2021/08/10 07:51:10;;;;;;;5.88;3.80;;;22.40;77.60;;;;;;5113368;28;20035;-84
2021/08/10 07:53:36;;;;;;;6.60;4.50;;;22.90;75.50;;;;;;5104056;28;20028;-85
2021/08/10 07:56:04;;;;;;;3.92;3.38;;;23.20;73.40;;;;;;5092065;28;20536;-84
2021/08/10 07:58:30;;;;;;;7.30;4.20;;;23.20;72.60;;;;;;5107682;28;20055;-84
2021/08/10 08:00:56;;;;;;;6.40;3.97;;;23.00;72.50;;;;;;5107091;28;20059;-85
2021/08/10 08:03:22;;;;;;;3.95;3.45;;;22.60;72.80;;;;;;5086497;28;20034;-82
2021/08/10 08:05:48;;;;;;;4.40;3.55;;;22.20;73.50;;;;;;5102744;28;20391;-83
2021/08/10 08:08:14;;;;;;;5.40;3.83;;;21.80;74.90;;;;;;5103421;28;20024;-83
2021/08/10 08:10:39;;;;;;;5.78;4.07;;;21.60;76.20;;;;;;5103736;28;20042;-83
2021/08/10 08:13:05;;;;;;;7.05;4.20;;;21.30;76.20;;;;;;5093084;28;20891;-82
2021/08/10 08:15:33;;;;;;;7.25;4.20;;;21.00;76.70;;;;;;5078342;28;20028;-83
2021/08/10 08:17:58;;;;;;;6.18;3.85;;;21.00;77.30;;;;;;5111525;28;20023;-83
2021/08/10 08:20:24;;;;;;;5.50;4.10;;;21.00;77.90;;;;;;5112925;28;20453;-84
2021/08/10 08:22:50;;;;;;;6.75;4.20;;;21.10;77.30;;;;;;5124343;27;20076;-84
2021/08/10 08:25:15;;;;;;;9.55;4.15;;;21.20;77.70;;;;;;5112394;28;20032;-85
2021/08/10 08:27:41;;;;;;;6.22;4.00;;;21.30;77.50;;;;;;5092725;28;20451;-85
2021/08/10 08:30:08;;;;;;;6.78;4.07;;;21.30;77.10;;;;;;5131444;28;20090;-84
2021/08/10 08:32:33;;;;;;;6.75;4.38;;;21.20;77.00;;;;;;5112993;28;20391;-83
2021/08/10 08:34:59;;;;;;;6.25;4.95;;;21.20;77.30;;;;;;5085291;28;20056;-82
2021/08/10 08:37:25;;;;;;;5.85;4.55;;;21.20;77.40;;;;;;5087171;28;20028;-84
2021/08/10 08:39:50;;;;;;;6.32;4.65;;;21.20;77.50;;;;;;5129422;27;20031;-83
2021/08/10 08:42:16;;;;;;;7.93;3.80;;;21.20;77.60;;;;;;5114549;28;20027;-84
2021/08/10 08:44:42;;;;;;;9.10;4.20;;;21.10;77.90;;;;;;5098707;28;20456;-85
2021/08/10 08:47:09;;;;;;;7.47;3.70;;;21.20;77.90;;;;;;5114094;28;20146;-83
2021/08/10 08:49:37;;;;;;;7.55;3.47;;;21.30;77.20;;;;;;5095165;28;20119;-84
2021/08/10 08:52:05;;;;;;;8.43;3.72;;;21.30;77.60;;;;;;5112324;28;20034;-84
2021/08/10 08:54:32;;;;;;;6.32;3.88;;;21.50;77.30;;;;;;5107329;28;20032;-86
2021/08/10 08:56:59;;;;;;;5.70;4.15;;;21.50;76.90;;;;;;5093182;28;20045;-85
2021/08/10 08:59:25;;;;;;;6.43;3.40;;;21.40;76.90;;;;;;5113173;28;20067;-85
2021/08/10 09:01:52;;;;;;;6.63;3.85;;;21.40;77.30;;;;;;5110862;28;20107;-84
2021/08/10 09:04:19;;;;;;;7.50;3.60;;;21.70;76.70;;;;;;5077732;28;20031;-84
2021/08/10 09:06:45;;;;;;;5.55;3.30;;;22.10;76.00;;;;;;5110575;28;20012;-84
2021/08/10 09:09:22;;;;;;;4.45;3.33;;;22.40;74.70;;;;;;5093087;28;20378;-85
2021/08/10 09:11:59;;;;;;;4.90;3.10;;;22.50;74.30;;;;;;5111516;28;20023;-83
2021/08/10 09:14:51;;;;;;;4.60;3.30;;;22.70;73.60;;;;;;5112219;28;20055;-85
2021/08/10 09:17:19;;;;;;;5.40;3.15;;;22.80;72.90;;;;;;5112704;28;20033;-85
2021/08/10 09:19:49;;;;;;;5.25;3.28;;;23.00;72.60;;;;;;5112156;28;20116;-85
2021/08/10 09:22:24;;;;;;;3.97;3.03;;;23.20;72.20;;;;;;5111062;28;20615;-84
2021/08/10 09:24:55;;;;;;;5.65;3.50;;;23.50;70.90;;;;;;5093033;28;20032;-84
2021/08/10 09:27:26;;;;;;;5.65;3.00;;;23.80;70.20;;;;;;5100641;28;20096;-83
2021/08/10 09:29:53;;;;;;;5.40;3.00;;;24.10;69.50;;;;;;5114918;28;20036;-83
2021/08/10 09:32:18;;;;;;;4.50;2.63;;;24.80;68.10;;;;;;5111137;28;20301;-83
2021/08/10 09:34:44;;;;;;;4.10;3.67;;;25.60;66.80;;;;;;5080490;28;20541;-82
2021/08/10 09:37:17;;;;;;;4.03;2.75;;;26.30;64.90;;;;;;5104736;28;20036;-82
2021/08/10 09:39:43;;;;;;;4.38;3.85;;;27.10;63.60;;;;;;5101328;28;20027;-82
2021/08/10 09:42:12;;;;;;;4.88;3.15;;;27.70;61.30;;;;;;5107374;28;20084;-82
2021/08/10 09:45:02;;;;;;;4.57;3.10;;;28.30;60.20;;;;;;5109720;28;20035;-82
2021/08/10 09:47:36;;;;;;;5.07;3.00;;;28.50;59.20;;;;;;5100603;28;20084;-80
2021/08/10 09:50:01;;;;;;;6.32;3.08;;;28.40;58.30;;;;;;5104607;28;20518;-84
2021/08/10 09:52:29;;;;;;;6.13;2.78;;;28.50;56.90;;;;;;5109655;28;20111;-82
2021/08/10 09:55:09;;;;;;;3.63;2.70;;;28.10;54.40;;;;;;5105544;28;20038;-81
2021/08/10 09:57:35;;;;;;;3.22;2.55;;;27.80;57.00;;;;;;5110461;28;20034;-80
2021/08/10 10:00:00;;;;;;;5.55;2.85;;;27.60;57.80;;;;;;5076025;28;20122;-81
2021/08/10 10:02:26;;;;;;;5.97;2.60;;;27.20;56.40;;;;;;5094038;28;20120;-81
2021/08/10 10:04:56;;;;;;;3.80;2.40;;;26.70;58.30;;;;;;5111807;28;20008;-81
2021/08/10 10:07:24;;;;;;;3.90;2.75;;;26.50;59.20;;;;;;5114099;28;20047;-81
2021/08/10 10:09:50;;;;;;;2.58;2.10;;;26.30;60.00;;;;;;5115021;28;20040;-83
2021/08/10 10:12:19;;;;;;;4.40;2.42;;;26.10;60.00;;;;;;5114413;28;20028;-83
2021/08/10 10:14:47;;;;;;;3.15;2.40;;;25.80;61.00;;;;;;5114211;28;20035;-83
2021/08/10 10:17:13;;;;;;;4.00;1.95;;;25.60;62.40;;;;;;5113218;28;20026;-80
2021/08/10 10:19:42;;;;;;;4.88;2.00;;;25.40;62.00;;;;;;5097603;28;20573;-79
2021/08/10 10:22:15;;;;;;;3.53;2.03;;;25.40;62.60;;;;;;5110885;28;20024;-82
2021/08/10 10:25:07;;;;;;;4.13;1.95;;;25.50;62.30;;;;;;5113483;27;20440;-80
2021/08/10 10:27:36;;;;;;;5.35;2.30;;;25.60;62.50;;;;;;5114054;28;20031;-80
2021/08/10 10:30:03;;;;;;;2.97;1.58;;;25.90;62.40;;;;;;5114842;28;20047;-81
2021/08/10 10:32:29;;;;;;;2.75;1.73;;;26.10;62.20;;;;;;5113361;28;20103;-82
2021/08/10 10:34:54;;;;;;;4.03;1.58;;;26.60;61.70;;;;;;5081761;28;20119;-81
2021/08/10 10:37:23;;;;;;;3.25;1.75;;;27.10;61.10;;;;;;5111945;28;20420;-82
2021/08/10 10:39:56;;;;;;;3.17;1.95;;;27.50;59.30;;;;;;5113303;28;20089;-82
2021/08/10 10:42:23;;;;;;;2.65;1.90;;;27.70;59.00;;;;;;5109740;28;20020;-82
2021/08/10 10:44:51;;;;;;;5.45;2.10;;;27.80;58.20;;;;;;5098613;28;20031;-83
2021/08/10 10:47:23;;;;;;;2.70;2.00;;;27.70;58.20;;;;;;5096249;28;20039;-82
2021/08/10 10:50:13;;;;;;;3.85;1.50;;;27.60;57.90;;;;;;5113252;28;20034;-81
2021/08/10 10:52:39;;;;;;;3.20;1.42;;;27.70;57.30;;;;;;5113137;28;20026;-84
2021/08/10 10:55:06;;;;;;;2.90;1.27;;;27.80;56.50;;;;;;5104231;28;20031;-83
2021/08/10 10:57:35;;;;;;;2.80;1.30;;;28.20;56.40;;;;;;5095316;28;20467;-82
2021/08/10 11:00:04;;;;;;;3.63;1.50;;;28.50;55.00;;;;;;5114022;28;20023;-81
2021/08/10 11:02:30;;;;;;;2.78;1.42;;;28.40;54.60;;;;;;5102193;28;20035;-82
2021/08/10 11:05:08;;;;;;;3.17;1.30;;;28.60;54.90;;;;;;5092939;28;20369;-81
2021/08/10 11:07:45;;;;;;;2.40;1.50;;;28.60;54.10;;;;;;5102209;28;20035;-82
2021/08/10 11:10:29;;;;;;;3.08;1.40;;;28.60;54.30;;;;;;5114637;28;20032;-82
2021/08/10 11:12:55;;;;;;;3.45;1.67;;;28.40;54.40;;;;;;5108616;28;20502;-84
2021/08/10 11:15:22;;;;;;;3.55;1.85;;;28.20;55.70;;;;;;5112852;28;20028;-83
2021/08/10 11:18:09;;;;;;;3.55;1.90;;;27.80;56.80;;;;;;5109805;28;20507;-82
2021/08/10 11:20:43;;;;;;;3.60;1.67;;;27.60;57.30;;;;;;5092094;28;20047;-82
2021/08/10 11:23:25;;;;;;;3.83;1.92;;;27.60;56.90;;;;;;5107417;28;20023;-80
2021/08/10 11:25:52;;;;;;;4.07;1.80;;;27.50;56.80;;;;;;5112516;28;20371;-84
2021/08/10 11:28:37;;;;;;;4.00;2.10;;;27.20;57.30;;;;;;5112395;28;20038;-83
2021/08/10 11:31:35;;;;;;;3.35;1.52;;;27.00;58.40;;;;;;5100578;28;20020;-81
2021/08/10 11:34:03;;;;;;;2.85;1.48;;;27.00;58.10;;;;;;5111301;28;20085;-80
2021/08/10 11:36:30;;;;;;;2.50;1.00;;;27.00;57.80;;;;;;5111612;28;20516;-80
2021/08/10 11:38:55;;;;;;;2.60;0.90;;;26.80;57.60;;;;;;5112694;28;20035;-81
2021/08/10 11:41:27;;;;;;;2.78;1.50;;;26.80;57.60;;;;;;5105344;28;20032;-84
2021/08/10 11:43:56;;;;;;;5.32;1.02;;;26.60;57.80;;;;;;5100997;28;20077;-80
2021/08/10 11:46:26;;;;;;;2.30;1.00;;;26.60;58.50;;;;;;5109997;28;20532;-84
2021/08/10 11:49:06;;;;;;;2.75;1.40;;;26.60;58.30;;;;;;5096505;28;20059;-82
2021/08/10 11:51:40;;;;;;;2.35;1.20;;;26.70;58.20;;;;;;5116314;27;20031;-81
2021/08/10 11:54:21;;;;;;;3.30;1.35;;;26.50;58.50;;;;;;5111886;27;20020;-84
2021/08/10 11:56:53;;;;;;;3.22;1.27;;;26.40;58.50;;;;;;5108617;28;20040;-81
2021/08/10 11:59:26;;;;;;;2.00;1.20;;;26.20;59.90;;;;;;5109400;28;20089;-80
2021/08/10 12:01:54;;;;;;;2.33;1.10;;;26.00;60.40;;;;;;5103524;28;20016;-80
2021/08/10 12:04:24;;;;;;;2.53;1.45;;;25.50;61.40;;;;;;5113565;28;20531;-79
2021/08/10 12:06:54;;;;;;;2.03;1.00;;;25.20;62.70;;;;;;5112665;28;20022;-80
2021/08/10 12:09:38;;;;;;;4.38;1.30;;;25.20;63.10;;;;;;5114129;28;20027;-81
2021/08/10 12:12:06;;;;;;;3.00;1.30;;;25.20;63.10;;;;;;5108810;28;20020;-83
2021/08/10 12:14:33;;;;;;;4.93;1.70;;;25.20;63.50;;;;;;5092997;28;20045;-81
2021/08/10 12:17:00;;;;;;;3.00;1.38;;;25.30;63.30;;;;;;5095544;28;20020;-80
2021/08/10 12:19:39;;;;;;;4.18;2.03;;;25.20;63.30;;;;;;5114089;28;20024;-81
2021/08/10 12:22:18;;;;;;;5.38;1.50;;;25.20;63.80;;;;;;5112742;28;20026;-79
2021/08/10 12:24:45;;;;;;;2.53;1.63;;;24.90;64.00;;;;;;5108030;28;20506;-81
2021/08/10 12:27:12;;;;;;;3.00;1.80;;;24.70;64.30;;;;;;5092273;28;20081;-80
2021/08/10 12:29:40;;;;;;;3.17;1.63;;;24.40;64.90;;;;;;5108477;28;20123;-82
2021/08/10 12:32:10;;;;;;;3.58;1.80;;;24.20;66.80;;;;;;5108205;28;20032;-82
2021/08/10 12:34:41;;;;;;;2.78;1.52;;;23.90;68.20;;;;;;5102329;28;20036;-82
2021/08/10 12:37:08;;;;;;;3.40;1.98;;;23.70;69.60;;;;;;5100613;28;20102;-80
2021/08/10 12:39:42;;;;;;;3.92;1.73;;;23.40;70.80;;;;;;5057977;28;20438;-80
2021/08/10 12:42:09;;;;;;;2.38;1.83;;;23.20;71.50;;;;;;5109486;28;20032;-79
2021/08/10 12:44:35;;;;;;;2.75;2.03;;;22.90;72.60;;;;;;5113541;28;20016;-78
2021/08/10 12:47:04;;;;;;;2.70;2.13;;;22.80;73.90;;;;;;5111962;28;20578;-78
2021/08/10 12:49:41;;;;;;;3.65;2.47;;;22.70;74.70;;;;;;5095483;28;20487;-84
2021/08/10 12:52:11;;;;;;;4.60;2.63;;;22.70;75.10;;;;;;5094177;28;20383;-81